createdAt,value
2022-09-01T00:01:48.601Z,1.27
2022-09-01T00:04:20.474Z,1.30
2022-09-01T00:06:47.851Z,1.33
2022-09-01T00:09:17.391Z,1.67
2022-09-01T00:11:50.619Z,1.33
2022-09-01T00:14:30.322Z,1.40
2022-09-01T00:16:59.712Z,1.20
2022-09-01T00:19:27.153Z,1.33
2022-09-01T00:21:53.951Z,1.33
2022-09-01T00:24:20.661Z,1.47
2022-09-01T00:26:47.657Z,1.50
2022-09-01T00:29:15.286Z,1.40
2022-09-01T00:31:42.321Z,1.33
2022-09-01T00:34:09.047Z,1.37
2022-09-01T00:36:35.726Z,1.70
2022-09-01T00:39:02.903Z,1.60
2022-09-01T00:41:31.953Z,1.70
2022-09-01T00:44:01.866Z,1.37
2022-09-01T00:46:36.969Z,1.30
2022-09-01T00:49:35.089Z,1.33
2022-09-01T00:52:32.034Z,1.20
2022-09-01T00:55:02.821Z,1.47
2022-09-01T00:57:29.625Z,1.60
2022-09-01T01:00:13.399Z,1.80
2022-09-01T01:02:42.272Z,1.40
2022-09-01T01:05:10.599Z,1.37
2022-09-01T01:07:47.564Z,1.60
2022-09-01T01:10:17.638Z,1.70
2022-09-01T01:12:44.827Z,1.70
2022-09-01T01:15:12.750Z,1.63
2022-09-01T01:17:39.703Z,1.67
2022-09-01T01:20:26.939Z,1.63
2022-09-01T01:23:20.914Z,2.30
2022-09-01T01:26:13.717Z,1.60
2022-09-01T01:28:41.917Z,2.17
2022-09-01T01:31:20.357Z,1.77
2022-09-01T01:33:50.065Z,2.00
2022-09-01T01:36:31.089Z,1.77
2022-09-01T01:39:01.851Z,1.90
2022-09-01T01:41:30.370Z,1.70
2022-09-01T01:43:58.594Z,1.97
2022-09-01T01:46:26.408Z,1.90
2022-09-01T01:48:53.665Z,1.93
2022-09-01T01:51:24.906Z,1.93
2022-09-01T01:53:52.586Z,2.20
2022-09-01T01:56:20.581Z,1.93
2022-09-01T01:58:47.222Z,2.50
2022-09-01T02:01:13.879Z,2.33
2022-09-01T02:03:40.902Z,2.30
2022-09-01T02:06:09.820Z,2.60
2022-09-01T02:08:38.180Z,2.30
2022-09-01T02:11:06.214Z,2.60
2022-09-01T02:13:34.033Z,2.57
2022-09-01T02:16:07.624Z,2.47
2022-09-01T02:18:37.917Z,2.20
2022-09-01T02:21:15.177Z,2.50
2022-09-01T02:23:44.667Z,2.50
2022-09-01T02:26:16.681Z,2.70
2022-09-01T02:28:46.876Z,2.93
2022-09-01T02:31:15.580Z,2.40
2022-09-01T02:33:47.027Z,2.70
2022-09-01T02:36:17.234Z,3.17
2022-09-01T02:38:46.731Z,2.40
2022-09-01T02:41:23.007Z,2.70
2022-09-01T02:43:50.654Z,2.57
2022-09-01T02:46:18.832Z,3.03
2022-09-01T02:48:46.019Z,2.33
2022-09-01T02:51:17.076Z,3.03
2022-09-01T02:53:44.759Z,2.30
2022-09-01T02:56:14.487Z,2.77
2022-09-01T02:58:46.888Z,2.83
2022-09-01T03:01:22.584Z,2.80
2022-09-01T03:03:50.294Z,2.90
2022-09-01T03:06:20.949Z,3.40
2022-09-01T03:08:48.397Z,3.03
2022-09-01T03:11:15.556Z,3.60
2022-09-01T03:13:43.021Z,3.03
2022-09-01T03:16:10.638Z,3.63
2022-09-01T03:18:38.073Z,3.53
2022-09-01T03:21:08.280Z,3.50
2022-09-01T03:23:35.386Z,3.43
2022-09-01T03:26:02.041Z,3.93
2022-09-01T03:28:28.939Z,3.60
2022-09-01T03:30:57.435Z,4.20
2022-09-01T03:33:25.926Z,4.07
2022-09-01T03:35:53.402Z,3.90
2022-09-01T03:38:24.389Z,4.00
2022-09-01T03:41:03.003Z,3.77
2022-09-01T03:43:35.629Z,4.10
2022-09-01T03:46:03.225Z,4.30
2022-09-01T03:48:32.006Z,4.00
2022-09-01T03:51:03.177Z,4.23
2022-09-01T03:53:34.121Z,4.37
2022-09-01T03:56:04.057Z,4.20
2022-09-01T03:58:30.970Z,4.00
2022-09-01T04:01:00.546Z,4.50
2022-09-01T04:03:31.251Z,4.80
2022-09-01T04:06:00.069Z,4.07
2022-09-01T04:08:32.668Z,3.90
2022-09-01T04:11:10.504Z,4.47
2022-09-01T04:13:39.766Z,4.77
2022-09-01T04:16:30.323Z,4.43
2022-09-01T04:18:57.079Z,4.20
2022-09-01T04:21:23.678Z,3.70
2022-09-01T04:23:50.286Z,4.90
2022-09-01T04:26:20.375Z,4.50
2022-09-01T04:28:49.409Z,3.90
2022-09-01T04:31:19.417Z,4.30
2022-09-01T04:33:49.626Z,4.37
2022-09-01T04:36:19.543Z,4.20
2022-09-01T04:38:47.079Z,4.43
2022-09-01T04:41:17.674Z,4.87
2022-09-01T04:43:47.327Z,4.73
2022-09-01T04:46:18.157Z,4.23
2022-09-01T04:48:48.182Z,4.07
2022-09-01T04:51:16.063Z,4.07
2022-09-01T04:53:48.583Z,4.63
2022-09-01T04:56:20.652Z,4.27
2022-09-01T04:58:47.835Z,3.97
2022-09-01T05:01:17.439Z,3.63
2022-09-01T05:03:45.287Z,3.83
2022-09-01T05:06:20.338Z,4.10
2022-09-01T05:08:46.990Z,3.53
2022-09-01T05:11:17.934Z,3.80
2022-09-01T05:13:46.495Z,3.77
2022-09-01T05:16:16.366Z,3.37
2022-09-01T05:18:48.817Z,3.43
2022-09-01T05:21:22.132Z,3.53
2022-09-01T05:23:51.554Z,3.57
2022-09-01T05:26:23.723Z,3.40
2022-09-01T05:28:54.651Z,3.30
2022-09-01T05:31:22.618Z,3.50
2022-09-01T05:33:50.754Z,3.40
2022-09-01T05:36:20.221Z,3.47
2022-09-01T05:38:48.374Z,3.93
2022-09-01T05:41:16.839Z,3.50
2022-09-01T05:43:46.231Z,2.83
2022-09-01T05:46:18.537Z,3.17
2022-09-01T05:48:46.579Z,3.20
2022-09-01T05:51:42.748Z,2.80
2022-09-01T05:54:08.001Z,3.30
2022-09-01T05:56:44.024Z,3.03
2022-09-01T05:59:28.475Z,3.50
2022-09-01T06:01:56.342Z,3.60
2022-09-01T06:04:25.511Z,2.90
2022-09-01T06:07:10.250Z,3.27
2022-09-01T06:09:41.643Z,2.80
2022-09-01T06:12:17.110Z,3.00
2022-09-01T06:14:44.761Z,3.47
2022-09-01T06:17:11.681Z,3.67
2022-09-01T06:19:39.964Z,2.93
2022-09-01T06:22:07.210Z,3.50
2022-09-01T06:24:33.874Z,3.13
2022-09-01T06:27:01.063Z,3.17
2022-09-01T06:29:28.440Z,2.87
2022-09-01T06:31:55.031Z,2.67
2022-09-01T06:34:22.258Z,2.63
2022-09-01T06:36:51.558Z,2.70
2022-09-01T06:39:20.896Z,2.70
2022-09-01T06:41:50.690Z,2.73
2022-09-01T06:44:23.003Z,2.53
2022-09-01T06:46:53.486Z,2.50
2022-09-01T06:49:21.569Z,2.63
2022-09-01T06:51:49.585Z,2.47
2022-09-01T06:54:20.737Z,2.80
2022-09-01T06:56:51.399Z,2.30
2022-09-01T06:59:20.498Z,2.30
2022-09-01T07:01:49.011Z,2.50
2022-09-01T07:04:21.607Z,2.13
2022-09-01T07:07:00.091Z,2.07
2022-09-01T07:12:27.855Z,1.90
2022-09-01T07:17:54.210Z,1.63
2022-09-01T07:20:23.965Z,1.77
2022-09-01T07:23:10.693Z,1.50
2022-09-01T07:26:02.306Z,1.53
2022-09-01T07:28:37.650Z,1.47
2022-09-01T07:33:55.626Z,1.83
2022-09-01T07:42:56.125Z,2.17
2022-09-01T07:45:26.600Z,1.40
2022-09-01T07:47:54.632Z,1.88
2022-09-01T07:50:39.774Z,1.60
2022-09-01T07:53:09.067Z,1.65
2022-09-01T07:55:40.287Z,2.30
2022-09-01T07:58:06.946Z,1.52
2022-09-01T08:00:34.211Z,1.55
2022-09-01T08:03:01.352Z,1.58
2022-09-01T08:05:28.827Z,1.40
2022-09-01T08:07:55.522Z,1.13
2022-09-01T08:10:22.222Z,1.15
2022-09-01T08:12:56.256Z,1.73
2022-09-01T08:15:40.966Z,1.50
2022-09-01T08:18:08.592Z,1.55
2022-09-01T08:20:39.473Z,1.38
2022-09-01T08:23:07.263Z,1.40
2022-09-01T08:25:37.029Z,1.33
2022-09-01T08:28:04.748Z,1.42
2022-09-01T08:30:32.794Z,1.30
2022-09-01T08:33:10.118Z,1.27
2022-09-01T08:35:39.893Z,1.17
2022-09-01T08:38:06.794Z,1.52
2022-09-01T08:40:33.524Z,1.13
2022-09-01T08:43:16.612Z,1.83
2022-09-01T08:45:56.462Z,1.35
2022-09-01T08:49:23.236Z,1.20
2022-09-01T08:51:37.428Z,1.60
2022-09-01T08:54:34.875Z,1.60
2022-09-01T08:57:06.657Z,1.48
2022-09-01T08:59:33.285Z,1.30
2022-09-01T09:02:16.379Z,1.65
2022-09-01T09:05:01.640Z,1.65
2022-09-01T09:07:46.727Z,1.15
2022-09-01T09:10:32.045Z,1.10
2022-09-01T09:12:58.691Z,1.60
2022-09-01T09:15:37.327Z,2.00
2022-09-01T09:18:39.061Z,1.55
2022-09-01T09:21:37.130Z,1.33
2022-09-01T09:24:39.253Z,1.30
2022-09-01T09:27:07.128Z,1.30
2022-09-01T09:29:36.642Z,1.17
2022-09-01T09:32:22.664Z,1.20
2022-09-01T09:34:50.906Z,1.05
2022-09-01T09:37:31.221Z,0.90
2022-09-01T09:40:10.042Z,1.30
2022-09-01T09:42:39.813Z,0.98
2022-09-01T09:45:35.075Z,1.02
2022-09-01T09:48:25.837Z,1.05
2022-09-01T09:50:52.673Z,1.05
2022-09-01T09:53:27.331Z,1.00
2022-09-01T09:55:59.293Z,1.27
2022-09-01T09:58:41.927Z,0.70
2022-09-01T10:01:28.198Z,1.05
2022-09-01T10:03:58.770Z,0.98
2022-09-01T10:06:41.907Z,0.80
2022-09-01T10:09:33.516Z,0.80
2022-09-01T10:12:02.207Z,1.20
2022-09-01T10:14:50.274Z,1.30
2022-09-01T10:17:51.623Z,0.88
2022-09-01T10:20:22.214Z,1.30
2022-09-01T10:22:50.714Z,1.05
2022-09-01T10:25:24.762Z,0.90
2022-09-01T10:28:20.834Z,1.20
2022-09-01T10:30:48.333Z,1.30
2022-09-01T10:33:20.961Z,1.00
2022-09-01T10:35:53.777Z,1.45
2022-09-01T10:38:24.213Z,1.25
2022-09-01T10:41:08.834Z,1.10
2022-09-01T10:43:49.817Z,1.23
2022-09-01T10:46:38.030Z,0.90
2022-09-01T10:49:46.443Z,1.08
2022-09-01T10:52:43.235Z,1.30
2022-09-01T10:55:24.472Z,1.17
2022-09-01T11:01:11.562Z,1.10
2022-09-01T11:03:56.384Z,1.00
2022-09-01T11:06:42.313Z,1.00
2022-09-01T11:09:24.549Z,0.90
2022-09-01T11:12:29.925Z,0.95
2022-09-01T11:15:14.518Z,0.93
2022-09-01T11:17:50.716Z,1.02
2022-09-01T11:20:31.302Z,0.90
2022-09-01T11:22:57.858Z,1.05
2022-09-01T11:25:40.843Z,0.82
2022-09-01T11:28:15.484Z,0.90
2022-09-01T11:30:55.061Z,1.00
2022-09-01T11:33:58.820Z,1.10
2022-09-01T11:36:48.648Z,0.82
2022-09-01T11:39:40.393Z,1.33
2022-09-01T11:42:23.920Z,0.85
2022-09-01T11:45:05.448Z,0.95
2022-09-01T11:47:38.418Z,0.93
2022-09-01T11:50:16.040Z,0.90
2022-09-01T11:52:51.817Z,1.08
2022-09-01T11:55:39.930Z,1.00
2022-09-01T11:58:13.420Z,0.90
2022-09-01T12:00:43.038Z,0.90
2022-09-01T12:03:30.325Z,1.00
2022-09-01T12:06:02.340Z,0.90
2022-09-01T12:08:34.218Z,1.05
2022-09-01T12:11:27.415Z,0.80
2022-09-01T12:14:15.800Z,0.88
2022-09-01T12:16:42.852Z,0.85
2022-09-01T12:19:27.222Z,1.05
2022-09-01T12:22:00.623Z,0.80
2022-09-01T12:24:31.318Z,1.00
2022-09-01T12:26:58.975Z,1.00
2022-09-01T12:29:28.876Z,0.80
2022-09-01T12:32:01.256Z,0.82
2022-09-01T12:34:28.209Z,1.00
2022-09-01T12:37:22.603Z,0.90
2022-09-01T12:39:57.502Z,0.90
2022-09-01T12:42:40.830Z,1.20
2022-09-01T12:45:10.492Z,1.20
2022-09-01T12:47:37.278Z,0.90
2022-09-01T12:50:12.903Z,1.00
2022-09-01T12:52:46.433Z,0.98
2022-09-01T12:58:10.469Z,0.88
2022-09-01T13:01:16.272Z,0.90
2022-09-01T13:03:43.453Z,1.05
2022-09-01T13:06:10.935Z,1.08
2022-09-01T13:08:37.890Z,1.10
2022-09-01T13:11:11.415Z,0.82
2022-09-01T13:13:38.363Z,0.90
2022-09-01T13:16:12.995Z,0.93
2022-09-01T13:21:30.352Z,1.10
2022-09-01T13:23:57.212Z,0.70
2022-09-01T13:26:24.036Z,1.15
2022-09-01T13:28:51.496Z,0.88
2022-09-01T13:31:34.367Z,0.93
2022-09-01T13:34:10.778Z,1.10
2022-09-01T13:36:52.185Z,1.10
2022-09-01T13:39:20.476Z,1.00
2022-09-01T13:41:47.932Z,1.02
2022-09-01T13:44:16.966Z,1.10
2022-09-01T13:47:00.873Z,1.20
2022-09-01T13:52:19.398Z,1.15
2022-09-01T13:54:46.072Z,1.00
2022-09-01T13:57:13.936Z,1.38
2022-09-01T13:59:41.759Z,1.15
2022-09-01T14:02:08.481Z,1.10
2022-09-01T14:04:35.315Z,1.20
2022-09-01T14:07:02.889Z,1.10
2022-09-01T14:09:29.705Z,1.20
2022-09-01T14:11:56.993Z,1.20
2022-09-01T14:14:23.877Z,1.13
2022-09-01T14:16:50.925Z,1.30
2022-09-01T14:19:18.305Z,1.08
2022-09-01T14:21:45.410Z,1.02
2022-09-01T14:24:12.780Z,1.00
2022-09-01T14:26:41.562Z,1.15
2022-09-01T14:29:08.409Z,1.20
2022-09-01T14:31:36.168Z,1.17
2022-09-01T14:34:02.786Z,1.30
2022-09-01T14:36:29.814Z,1.10
2022-09-01T14:38:56.618Z,1.10
2022-09-01T14:41:26.763Z,0.90
2022-09-01T14:43:57.671Z,0.90
2022-09-01T14:46:26.763Z,1.10
2022-09-01T14:48:53.505Z,1.30
2022-09-01T14:52:10.330Z,1.10
2022-09-01T14:54:15.736Z,1.20
2022-09-01T14:56:42.391Z,1.15
2022-09-01T14:59:10.824Z,1.17
2022-09-01T15:01:37.610Z,0.90
2022-09-01T15:04:04.339Z,1.60
2022-09-01T15:06:31.589Z,1.50
2022-09-01T15:08:59.637Z,1.30
2022-09-01T15:11:26.249Z,1.20
2022-09-01T15:13:53.066Z,1.08
2022-09-01T15:16:23.627Z,1.08
2022-09-01T15:18:51.119Z,0.98
2022-09-01T15:21:22.780Z,1.40
2022-09-01T15:23:50.840Z,1.27
2022-09-01T15:26:17.954Z,1.42
2022-09-01T15:28:45.569Z,1.10
2022-09-01T15:31:17.702Z,1.35
2022-09-01T15:33:44.842Z,1.02
2022-09-01T15:36:17.622Z,1.02
2022-09-01T15:38:44.588Z,1.30
2022-09-01T15:41:17.781Z,1.63
2022-09-01T15:43:44.483Z,1.20
2022-09-01T15:46:12.454Z,1.40
2022-09-01T15:48:39.273Z,1.27
2022-09-01T15:51:24.077Z,1.42
2022-09-01T15:53:52.921Z,1.50
2022-09-01T15:56:20.201Z,1.40
2022-09-01T15:59:00.167Z,1.83
2022-09-01T16:01:30.424Z,1.65
2022-09-01T16:03:57.374Z,1.15
2022-09-01T16:06:24.329Z,1.50
2022-09-01T16:08:54.175Z,1.42
2022-09-01T16:11:23.434Z,1.55
2022-09-01T16:13:53.503Z,1.38
2022-09-01T16:16:26.196Z,1.80
2022-09-01T16:19:21.625Z,1.42
2022-09-01T16:22:18.378Z,1.80
2022-09-01T16:24:51.160Z,1.63
2022-09-01T16:27:20.346Z,1.17
2022-09-01T16:29:51.828Z,1.48
2022-09-01T16:32:21.287Z,1.35
2022-09-01T16:34:48.854Z,1.50
2022-09-01T16:37:48.213Z,1.48
2022-09-01T16:40:28.033Z,1.52
2022-09-01T16:43:18.593Z,1.42
2022-09-01T16:46:20.491Z,1.50
2022-09-01T16:49:01.833Z,1.42
2022-09-01T16:51:42.375Z,1.63
2022-09-01T16:54:24.719Z,1.60
2022-09-01T16:56:58.396Z,1.63
2022-09-01T16:59:44.343Z,1.70
2022-09-01T17:02:42.207Z,1.60
2022-09-01T17:05:48.543Z,1.25
2022-09-01T17:08:20.829Z,1.65
2022-09-01T17:10:59.041Z,1.40
2022-09-01T17:13:38.282Z,1.58
2022-09-01T17:16:11.959Z,1.83
2022-09-01T17:18:40.638Z,1.70
2022-09-01T17:21:16.281Z,1.55
2022-09-01T17:23:53.255Z,1.52
2022-09-01T17:26:26.570Z,1.35
2022-09-01T17:29:02.445Z,1.55
2022-09-01T17:31:48.483Z,1.20
2022-09-01T17:34:39.989Z,1.40
2022-09-01T17:37:39.874Z,1.63
2022-09-01T17:40:19.100Z,2.10
2022-09-01T17:42:56.653Z,1.63
2022-09-01T17:45:35.995Z,1.65
2022-09-01T17:48:18.317Z,2.10
2022-09-01T17:51:03.579Z,1.42
2022-09-01T17:53:45.409Z,1.45
2022-09-01T17:56:35.929Z,1.55
2022-09-01T17:59:15.125Z,1.77
2022-09-01T18:01:52.774Z,1.55
2022-09-01T18:04:44.253Z,1.50
2022-09-01T18:07:34.626Z,2.13
2022-09-01T18:10:05.037Z,1.50
2022-09-01T18:12:36.042Z,1.80
2022-09-01T18:15:10.835Z,1.43
2022-09-01T18:17:44.479Z,1.60
2022-09-01T18:20:24.471Z,1.43
2022-09-01T18:23:05.318Z,1.67
2022-09-01T18:25:47.782Z,1.80
2022-09-01T18:28:15.077Z,1.70
2022-09-01T18:31:00.889Z,2.10
2022-09-01T18:33:46.410Z,1.80
2022-09-01T18:36:15.845Z,1.60
2022-09-01T18:39:20.249Z,1.83
2022-09-01T18:42:07.246Z,1.80
2022-09-01T18:44:45.052Z,2.57
2022-09-01T18:47:15.266Z,2.67
2022-09-01T18:50:06.930Z,2.13
2022-09-01T18:52:59.548Z,1.90
2022-09-01T18:55:48.579Z,2.07
2022-09-01T18:58:35.653Z,1.87
2022-09-01T19:01:08.090Z,1.83
2022-09-01T19:03:48.581Z,1.60
2022-09-01T19:06:28.862Z,2.03
2022-09-01T19:09:33.135Z,2.27
2022-09-01T19:12:18.723Z,2.00
2022-09-01T19:15:12.196Z,1.90
2022-09-01T19:18:13.944Z,2.70
2022-09-01T19:21:09.606Z,2.00
2022-09-01T19:24:01.382Z,1.80
2022-09-01T19:26:31.942Z,1.80
2022-09-01T19:29:06.677Z,2.00
2022-09-01T19:32:02.423Z,1.93
2022-09-01T19:34:44.010Z,1.77
2022-09-01T19:37:11.740Z,2.00
2022-09-01T19:39:43.719Z,1.80
2022-09-01T19:42:32.194Z,1.60
2022-09-01T19:45:24.053Z,1.80
2022-09-01T19:47:50.594Z,1.67
2022-09-01T19:50:31.317Z,1.60
2022-09-01T19:53:12.251Z,1.23
2022-09-01T19:56:18.362Z,1.20
2022-09-01T19:58:56.578Z,1.20
2022-09-01T20:01:49.884Z,1.50
2022-09-01T20:04:41.411Z,1.30
2022-09-01T20:07:31.430Z,1.17
2022-09-01T20:10:21.562Z,1.20
2022-09-01T20:13:18.946Z,1.37
2022-09-01T20:16:09.168Z,1.10
2022-09-01T20:18:46.230Z,1.40
2022-09-01T20:21:17.588Z,1.30
2022-09-01T20:23:47.640Z,1.23
2022-09-01T20:26:21.142Z,1.37
2022-09-01T20:29:15.005Z,1.00
2022-09-01T20:31:50.030Z,1.27
2022-09-01T20:34:30.772Z,1.30
2022-09-01T20:37:11.433Z,1.17
2022-09-01T20:40:04.173Z,1.17
2022-09-01T20:43:02.210Z,1.00
2022-09-01T20:45:29.598Z,1.20
2022-09-01T20:48:02.945Z,0.97
2022-09-01T20:50:56.866Z,1.00
2022-09-01T20:53:48.548Z,1.10
2022-09-01T20:56:38.040Z,1.33
2022-09-01T20:59:30.399Z,1.20
2022-09-01T21:02:12.169Z,1.10
2022-09-01T21:05:01.028Z,1.33
2022-09-01T21:07:49.173Z,1.00
2022-09-01T21:10:55.381Z,1.17
2022-09-01T21:13:42.432Z,1.10
2022-09-01T21:16:23.456Z,1.00
2022-09-01T21:19:01.573Z,1.10
2022-09-01T21:21:28.527Z,1.00
2022-09-01T21:23:55.146Z,1.20
2022-09-01T21:26:21.983Z,0.97
2022-09-01T21:28:55.136Z,1.20
2022-09-01T21:31:24.129Z,1.60
2022-09-01T21:33:51.435Z,1.57
2022-09-01T21:36:18.506Z,1.70
2022-09-01T21:38:45.146Z,1.37
2022-09-01T21:41:13.228Z,1.13
2022-09-01T21:43:43.749Z,1.20
2022-09-01T21:46:11.026Z,1.30
2022-09-01T21:48:37.990Z,1.50
2022-09-01T21:51:04.775Z,1.20
2022-09-01T21:53:32.765Z,1.50
2022-09-01T21:55:59.835Z,1.37
2022-09-01T21:58:26.598Z,1.60
2022-09-01T22:00:53.312Z,1.30
2022-09-01T22:03:20.476Z,1.33
2022-09-01T22:05:47.227Z,1.27
2022-09-01T22:08:17.196Z,2.03
2022-09-01T22:10:49.046Z,2.13
2022-09-01T22:13:16.045Z,2.63
2022-09-01T22:15:47.545Z,1.90
2022-09-01T22:18:16.049Z,1.90
2022-09-01T22:20:43.394Z,2.13
2022-09-01T22:23:11.278Z,1.90
2022-09-01T22:25:42.831Z,1.67
2022-09-01T22:28:09.853Z,1.70
2022-09-01T22:30:36.725Z,1.53
2022-09-01T22:33:07.733Z,2.03
2022-09-01T22:35:34.350Z,1.97
2022-09-01T22:38:00.934Z,1.90
2022-09-01T22:40:27.645Z,1.50
2022-09-01T22:42:54.334Z,1.60
2022-09-01T22:45:21.002Z,1.70
2022-09-01T22:47:47.716Z,2.03
2022-09-01T22:50:14.386Z,2.00
2022-09-01T22:52:41.028Z,1.70
2022-09-01T22:55:09.473Z,1.60
2022-09-01T22:57:36.739Z,1.70
2022-09-01T23:00:08.518Z,1.67
2022-09-01T23:02:35.766Z,1.83
2022-09-01T23:05:02.615Z,1.63
2022-09-01T23:07:34.822Z,1.50
2022-09-01T23:10:01.786Z,1.90
2022-09-01T23:12:28.425Z,1.80
2022-09-01T23:14:55.094Z,1.60
2022-09-01T23:17:21.691Z,1.50
2022-09-01T23:19:48.302Z,1.43
2022-09-01T23:22:14.998Z,1.73
2022-09-01T23:24:41.718Z,1.47
2022-09-01T23:27:08.332Z,1.50
2022-09-01T23:29:36.965Z,1.70
2022-09-01T23:32:04.061Z,1.40
2022-09-01T23:34:30.661Z,1.73
2022-09-01T23:36:57.286Z,1.50
2022-09-01T23:39:23.882Z,1.30
2022-09-01T23:41:51.729Z,1.40
2022-09-01T23:44:18.585Z,1.30
2022-09-01T23:46:46.574Z,1.73
2022-09-01T23:49:15.235Z,1.30
2022-09-01T23:51:42.483Z,1.70
2022-09-01T23:54:09.555Z,1.30
2022-09-01T23:56:37.769Z,1.37
2022-09-01T23:59:05.209Z,1.50
